createdAt,value
2018-02-21T05:00:31.033Z,-1.33
2018-02-21T05:00:56.488Z,-1.35
2018-02-21T05:01:21.944Z,-1.29
2018-02-21T05:01:47.422Z,-1.33
2018-02-21T05:02:12.940Z,-1.27
2018-02-21T05:02:38.435Z,-1.29
2018-02-21T05:03:03.949Z,-1.4
2018-02-21T05:03:29.513Z,-1.35
2018-02-21T05:03:55.062Z,-1.29
2018-02-21T05:04:20.562Z,-1.3
2018-02-21T05:04:46.025Z,-1.37
2018-02-21T05:05:11.674Z,-1.27
2018-02-21T05:05:37.132Z,-1.4
2018-02-21T05:06:02.643Z,-1.38
2018-02-21T05:06:28.283Z,-1.35
2018-02-21T05:06:53.726Z,-1.38
2018-02-21T05:07:19.191Z,-1.38
2018-02-21T05:07:44.643Z,-1.33
2018-02-21T05:08:10.252Z,-1.33
2018-02-21T05:08:58.791Z,-1.32
2018-02-21T05:09:24.304Z,-1.37
2018-02-21T05:09:49.835Z,-1.33
2018-02-21T05:10:15.313Z,-1.4
2018-02-21T05:10:40.834Z,-1.32
2018-02-21T05:11:06.290Z,-1.38
2018-02-21T05:11:31.796Z,-1.3
2018-02-21T05:11:57.600Z,-1.4
2018-02-21T05:12:23.268Z,-1.3
2018-02-21T05:12:48.858Z,-1.29
2018-02-21T05:13:14.349Z,-1.41
2018-02-21T05:13:39.803Z,-1.3
2018-02-21T05:14:05.268Z,-1.3
2018-02-21T05:14:30.775Z,-1.32
2018-02-21T05:14:56.278Z,-1.27
2018-02-21T05:15:21.728Z,-1.3
2018-02-21T05:15:47.224Z,-1.32
2018-02-21T05:16:12.684Z,-1.32
2018-02-21T05:16:38.243Z,-1.35
2018-02-21T05:17:03.738Z,-1.32
2018-02-21T05:17:29.236Z,-1.33
2018-02-21T05:17:54.754Z,-1.41
2018-02-21T05:18:20.221Z,-1.32
2018-02-21T05:18:45.704Z,-1.25
2018-02-21T05:19:11.160Z,-1.3
2018-02-21T05:19:36.737Z,-1.26
2018-02-21T05:20:02.226Z,-1.38
2018-02-21T05:21:11.333Z,-1.44
2018-02-21T05:21:36.833Z,-1.43
2018-02-21T05:22:02.375Z,-1.38
2018-02-21T05:22:27.801Z,-1.41
2018-02-21T05:22:53.275Z,-1.37
2018-02-21T05:23:18.823Z,-1.46
2018-02-21T05:23:44.317Z,-1.46
2018-02-21T05:24:09.818Z,-1.4
2018-02-21T05:24:35.281Z,-1.38
2018-02-21T05:25:00.772Z,-1.41
2018-02-21T05:25:26.307Z,-1.37
2018-02-21T05:25:51.788Z,-1.38
2018-02-21T05:26:17.241Z,-1.41
2018-02-21T05:26:42.693Z,-1.44
2018-02-21T05:27:08.178Z,-1.38
2018-02-21T05:27:33.650Z,-1.43
2018-02-21T05:27:59.163Z,-1.41
2018-02-21T05:28:24.637Z,-1.44
2018-02-21T05:28:50.159Z,-1.37
2018-02-21T05:29:15.647Z,-1.41
2018-02-21T05:29:41.154Z,-1.4
2018-02-21T05:30:06.621Z,-1.37
2018-02-21T05:30:32.145Z,-1.4
2018-02-21T05:30:57.589Z,-1.4
2018-02-21T05:31:23.088Z,-1.5
2018-02-21T05:31:48.596Z,-1.48
2018-02-21T05:32:14.095Z,-1.46
2018-02-21T05:32:39.565Z,-1.48
2018-02-21T05:33:05.119Z,-1.4
2018-02-21T05:33:30.639Z,-1.47
2018-02-21T05:33:56.177Z,-1.38
2018-02-21T05:34:21.619Z,-1.43
2018-02-21T05:34:47.067Z,-1.4
2018-02-21T05:35:12.597Z,-1.41
2018-02-21T05:35:38.098Z,-1.44
2018-02-21T05:36:03.664Z,-1.44
2018-02-21T05:36:29.187Z,-1.47
2018-02-21T05:36:54.641Z,-1.43
2018-02-21T05:37:20.153Z,-1.5
2018-02-21T05:37:45.612Z,-1.46
2018-02-21T05:38:11.178Z,-1.47
2018-02-21T05:38:36.672Z,-1.47
2018-02-21T05:39:02.219Z,-1.44
2018-02-21T05:39:27.823Z,-1.41
2018-02-21T05:39:53.376Z,-1.5
2018-02-21T05:40:18.859Z,-1.48
2018-02-21T05:40:44.423Z,-1.46
2018-02-21T05:41:10.025Z,-1.44
2018-02-21T05:41:35.503Z,-1.53
2018-02-21T05:42:00.950Z,-1.44
2018-02-21T05:42:26.419Z,-1.43
2018-02-21T05:42:51.931Z,-1.51
2018-02-21T05:43:17.435Z,-1.41
2018-02-21T05:43:42.917Z,-1.44
2018-02-21T05:44:08.399Z,-1.51
2018-02-21T05:44:33.831Z,-1.51
2018-02-21T05:44:59.339Z,-1.48
2018-02-21T05:45:24.871Z,-1.44
2018-02-21T05:45:50.309Z,-1.43
2018-02-21T05:46:15.821Z,-1.44
2018-02-21T05:46:41.299Z,-1.41
2018-02-21T05:47:06.782Z,-1.43
2018-02-21T05:47:32.305Z,-1.5
2018-02-21T05:47:57.831Z,-1.41
2018-02-21T05:48:23.360Z,-1.46
2018-02-21T05:48:48.924Z,-1.47
2018-02-21T05:49:14.362Z,-1.53
2018-02-21T05:49:39.880Z,-1.5
2018-02-21T05:50:05.560Z,-1.47
2018-02-21T05:50:31.012Z,-1.47
2018-02-21T05:50:56.479Z,-1.47
2018-02-21T05:51:21.907Z,-1.43
2018-02-21T05:51:47.394Z,-1.46
2018-02-21T05:52:12.899Z,-1.46
2018-02-21T05:53:16.527Z,-1.51
2018-02-21T05:53:42.116Z,-1.51
2018-02-21T05:54:07.594Z,-1.56
2018-02-21T05:54:33.050Z,-1.43
2018-02-21T05:54:58.514Z,-1.47
2018-02-21T05:55:24.020Z,-1.59
2018-02-21T05:55:49.484Z,-1.58
2018-02-21T05:56:14.964Z,-1.58
2018-02-21T05:56:40.410Z,-1.61
2018-02-21T05:57:05.872Z,-1.56
2018-02-21T05:57:31.430Z,-1.61
2018-02-21T05:57:56.882Z,-1.58
2018-02-21T05:58:22.350Z,-1.59
2018-02-21T05:58:47.836Z,-1.51
2018-02-21T05:59:46.362Z,-1.56
2018-02-21T06:00:11.811Z,-1.54
2018-02-21T06:00:37.312Z,-1.48
2018-02-21T06:01:02.756Z,-1.59
2018-02-21T06:01:28.234Z,-1.61
2018-02-21T06:01:53.730Z,-1.51
2018-02-21T06:02:19.214Z,-1.51
2018-02-21T06:02:44.731Z,-1.54
2018-02-21T06:03:10.212Z,-1.59
2018-02-21T06:03:35.830Z,-1.51
2018-02-21T06:04:01.199Z,-1.56
2018-02-21T06:04:26.832Z,-1.59
2018-02-21T06:04:52.242Z,-1.53
2018-02-21T06:05:17.759Z,-1.54
2018-02-21T06:05:43.203Z,-1.56
2018-02-21T06:06:08.801Z,-1.56
2018-02-21T06:06:34.269Z,-1.5
2018-02-21T06:06:59.732Z,-1.53
2018-02-21T06:07:25.208Z,-1.54
2018-02-21T06:07:50.681Z,-1.51
2018-02-21T06:08:16.198Z,-1.51
2018-02-21T06:08:41.642Z,-1.65
2018-02-21T06:09:07.153Z,-1.5
2018-02-21T06:09:32.648Z,-1.56
2018-02-21T06:09:58.134Z,-1.56
2018-02-21T06:10:23.744Z,-1.59
2018-02-21T06:10:49.166Z,-1.53
2018-02-21T06:11:14.733Z,-1.58
2018-02-21T06:11:40.162Z,-1.61
2018-02-21T06:12:05.639Z,-1.54
2018-02-21T06:12:31.114Z,-1.58
2018-02-21T06:12:56.538Z,-1.59
2018-02-21T06:13:22.010Z,-1.56
2018-02-21T06:13:47.469Z,-1.51
2018-02-21T06:14:13.004Z,-1.59
2018-02-21T06:14:38.486Z,-1.59
2018-02-21T06:15:03.974Z,-1.58
2018-02-21T06:15:29.417Z,-1.59
2018-02-21T06:15:54.941Z,-1.58
2018-02-21T06:16:20.442Z,-1.61
2018-02-21T06:16:45.916Z,-1.59
2018-02-21T06:17:11.391Z,-1.58
2018-02-21T06:17:36.886Z,-1.65
2018-02-21T06:18:02.355Z,-1.64
2018-02-21T06:18:27.805Z,-1.56
2018-02-21T06:18:53.319Z,-1.59
2018-02-21T06:19:18.827Z,-1.65
2018-02-21T06:19:44.298Z,-1.48
2018-02-21T06:20:09.772Z,-1.66
2018-02-21T06:20:35.273Z,-1.66
2018-02-21T06:21:00.766Z,-1.58
2018-02-21T06:21:26.263Z,-1.65
2018-02-21T06:22:35.997Z,-1.66
2018-02-21T06:23:01.442Z,-1.59
2018-02-21T06:23:26.947Z,-1.59
2018-02-21T06:23:52.440Z,-1.59
2018-02-21T06:24:17.986Z,-1.51
2018-02-21T06:24:43.466Z,-1.54
2018-02-21T06:25:08.873Z,-1.51
2018-02-21T06:25:34.357Z,-1.54
2018-02-21T06:25:59.862Z,-1.54
2018-02-21T06:26:25.372Z,-1.5
2018-02-21T06:26:50.812Z,-1.53
2018-02-21T06:27:16.322Z,-1.59
2018-02-21T06:27:41.748Z,-1.51
2018-02-21T06:28:07.492Z,-1.56
2018-02-21T06:28:32.984Z,-1.58
2018-02-21T06:28:58.495Z,-1.54
2018-02-21T06:29:23.875Z,-1.58
2018-02-21T06:29:49.383Z,-1.58
2018-02-21T06:30:14.870Z,-1.5
2018-02-21T06:30:40.340Z,-1.58
2018-02-21T06:31:05.839Z,-1.56
2018-02-21T06:31:31.314Z,-1.68
2018-02-21T06:31:56.792Z,-1.56
2018-02-21T06:32:22.266Z,-1.58
2018-02-21T06:32:47.733Z,-1.66
2018-02-21T06:33:13.236Z,-1.64
2018-02-21T06:33:38.814Z,-1.59
2018-02-21T06:34:04.250Z,-1.64
2018-02-21T06:34:29.727Z,-1.68
2018-02-21T06:34:55.205Z,-1.66
2018-02-21T06:35:20.663Z,-1.69
2018-02-21T06:35:46.153Z,-1.54
2018-02-21T06:36:11.665Z,-1.66
2018-02-21T06:36:37.184Z,-1.59
2018-02-21T06:37:02.644Z,-1.59
2018-02-21T06:37:28.178Z,-1.54
2018-02-21T06:37:53.664Z,-1.68
2018-02-21T06:38:19.150Z,-1.69
2018-02-21T06:38:44.717Z,-1.69
2018-02-21T06:39:10.238Z,-1.64
2018-02-21T06:39:35.737Z,-1.61
2018-02-21T06:40:01.232Z,-1.56
2018-02-21T06:40:26.730Z,-1.61
2018-02-21T06:40:52.224Z,-1.66
2018-02-21T06:41:17.764Z,-1.54
2018-02-21T06:41:43.229Z,-1.58
2018-02-21T06:42:08.699Z,-1.58
2018-02-21T06:43:12.662Z,-1.58
2018-02-21T06:43:38.165Z,-1.53
2018-02-21T06:44:03.641Z,-1.58
2018-02-21T06:44:29.109Z,-1.5
2018-02-21T06:44:54.615Z,-1.58
2018-02-21T06:45:20.090Z,-1.5
2018-02-21T06:45:45.599Z,-1.53
2018-02-21T06:46:11.072Z,-1.51
2018-02-21T06:46:36.601Z,-1.53
2018-02-21T06:47:02.115Z,-1.56
2018-02-21T06:47:28.521Z,-1.62
2018-02-21T06:47:54.068Z,-1.48
2018-02-21T06:48:19.551Z,-1.59
2018-02-21T06:48:45.030Z,-1.61
2018-02-21T06:49:10.497Z,-1.54
2018-02-21T06:49:35.976Z,-1.53
2018-02-21T06:50:01.480Z,-1.59
2018-02-21T06:50:27.010Z,-1.62
2018-02-21T06:50:52.500Z,-1.59
2018-02-21T06:51:18.037Z,-1.56
2018-02-21T06:51:43.557Z,-1.58
2018-02-21T06:52:09.033Z,-1.54
2018-02-21T06:52:34.464Z,-1.5
2018-02-21T06:52:59.963Z,-1.47
2018-02-21T06:53:25.434Z,-1.59
2018-02-21T06:53:50.922Z,-1.54
2018-02-21T06:54:16.462Z,-1.51
2018-02-21T06:54:41.934Z,-1.54
2018-02-21T06:55:07.434Z,-1.48
2018-02-21T06:55:55.739Z,-1.54
2018-02-21T06:56:21.267Z,-1.53
2018-02-21T06:56:46.696Z,-1.46
2018-02-21T06:57:12.228Z,-1.61
2018-02-21T06:57:37.675Z,-1.58
2018-02-21T06:58:36.186Z,-1.51
2018-02-21T06:59:01.656Z,-1.58
2018-02-21T06:59:27.100Z,-1.46
2018-02-21T06:59:52.605Z,-1.58
2018-02-21T07:00:18.073Z,-1.56
2018-02-21T07:00:43.520Z,-1.56
2018-02-21T07:01:08.982Z,-1.61
2018-02-21T07:01:34.540Z,-1.51
2018-02-21T07:02:00.054Z,-1.61
2018-02-21T07:02:25.578Z,-1.5
2018-02-21T07:02:51.108Z,-1.48
2018-02-21T07:03:16.614Z,-1.46
2018-02-21T07:03:42.099Z,-1.47
2018-02-21T07:04:07.575Z,-1.46
2018-02-21T07:04:33.051Z,-1.56
2018-02-21T07:04:58.525Z,-1.47
2018-02-21T07:05:23.993Z,-1.58
2018-02-21T07:05:49.481Z,-1.5
2018-02-21T07:06:14.937Z,-1.46
2018-02-21T07:06:40.448Z,-1.5
2018-02-21T07:07:05.958Z,-1.46
2018-02-21T07:07:31.452Z,-1.43
2018-02-21T07:07:56.924Z,-1.51
2018-02-21T07:08:22.438Z,-1.51
2018-02-21T07:08:47.924Z,-1.38
2018-02-21T07:09:13.415Z,-1.48
2018-02-21T07:09:38.916Z,-1.5
2018-02-21T07:10:04.406Z,-1.4
2018-02-21T07:10:29.871Z,-1.41
2018-02-21T07:10:55.339Z,-1.48
2018-02-21T07:11:20.858Z,-1.43
2018-02-21T07:11:46.349Z,-1.4
2018-02-21T07:12:11.798Z,-1.4
2018-02-21T07:12:37.304Z,-1.35
2018-02-21T07:13:02.764Z,-1.4
2018-02-21T07:13:28.254Z,-1.43
2018-02-21T07:13:53.761Z,-1.41
2018-02-21T07:14:19.184Z,-1.41
2018-02-21T07:14:44.749Z,-1.41
2018-02-21T07:15:10.189Z,-1.46
2018-02-21T07:15:35.733Z,-1.41
2018-02-21T07:16:01.172Z,-1.41
2018-02-21T07:17:09.860Z,-1.38
2018-02-21T07:17:35.334Z,-1.41
2018-02-21T07:18:00.809Z,-1.37
2018-02-21T07:18:26.339Z,-1.37
2018-02-21T07:18:51.829Z,-1.4
2018-02-21T07:19:17.264Z,-1.44
2018-02-21T07:19:42.797Z,-1.37
2018-02-21T07:20:08.267Z,-1.43
2018-02-21T07:20:33.740Z,-1.32
2018-02-21T07:20:59.270Z,-1.35
2018-02-21T07:21:24.755Z,-1.41
2018-02-21T07:21:50.280Z,-1.35
2018-02-21T07:22:15.743Z,-1.32
2018-02-21T07:22:41.233Z,-1.41
2018-02-21T07:23:06.697Z,-1.27
2018-02-21T07:23:32.184Z,-1.29
2018-02-21T07:23:57.649Z,-1.35
2018-02-21T07:24:23.096Z,-1.32
2018-02-21T07:24:48.565Z,-1.37
2018-02-21T07:25:14.032Z,-1.3
2018-02-21T07:25:39.529Z,-1.27
2018-02-21T07:26:05.054Z,-1.32
2018-02-21T07:26:30.605Z,-1.38
2018-02-21T07:26:56.065Z,-1.35
2018-02-21T07:27:21.561Z,-1.35
2018-02-21T07:27:47.030Z,-1.29
2018-02-21T07:28:12.469Z,-1.38
2018-02-21T07:28:37.942Z,-1.35
2018-02-21T07:29:03.477Z,-1.37
2018-02-21T07:29:28.941Z,-1.37
2018-02-21T07:29:54.388Z,-1.3
2018-02-21T07:30:42.680Z,-1.32
2018-02-21T07:31:08.166Z,-1.33
2018-02-21T07:31:33.630Z,-1.29
2018-02-21T07:31:59.142Z,-1.29
2018-02-21T07:32:24.624Z,-1.37
2018-02-21T07:32:50.109Z,-1.27
2018-02-21T07:33:15.602Z,-1.29
2018-02-21T07:33:41.093Z,-1.32
2018-02-21T07:34:06.592Z,-1.33
2018-02-21T07:34:32.064Z,-1.29
2018-02-21T07:34:57.542Z,-1.26
2018-02-21T07:35:23.031Z,-1.29
2018-02-21T07:35:48.528Z,-1.29
2018-02-21T07:36:14.105Z,-1.32
2018-02-21T07:36:39.554Z,-1.32
2018-02-21T07:37:05.024Z,-1.29
2018-02-21T07:37:30.482Z,-1.32
2018-02-21T07:37:55.989Z,-1.29
2018-02-21T07:38:21.499Z,-1.27
2018-02-21T07:38:46.992Z,-1.22
2018-02-21T07:39:12.486Z,-1.26
2018-02-21T07:39:38.058Z,-1.23
2018-02-21T07:40:03.556Z,-1.3
2018-02-21T07:40:28.997Z,-1.26
2018-02-21T07:40:54.525Z,-1.29
2018-02-21T07:41:47.939Z,-1.23
2018-02-21T07:42:13.414Z,-1.23
2018-02-21T07:42:38.925Z,-1.2
2018-02-21T07:43:04.448Z,-1.17
2018-02-21T07:43:29.935Z,-1.27
2018-02-21T07:43:55.422Z,-1.17
2018-02-21T07:44:20.944Z,-1.12
2018-02-21T07:44:46.452Z,-1.12
2018-02-21T07:45:11.933Z,-1.19
2018-02-21T07:45:37.403Z,-1.27
2018-02-21T07:46:02.908Z,-1.22
2018-02-21T07:46:28.364Z,-1.22
2018-02-21T07:46:53.879Z,-1.09
2018-02-21T07:47:19.361Z,-1.19
2018-02-21T07:47:44.806Z,-1.26
2018-02-21T07:48:10.208Z,-1.23
2018-02-21T07:48:35.697Z,-1.22
2018-02-21T07:49:01.198Z,-1.04
2018-02-21T07:49:26.709Z,-1.08
2018-02-21T07:49:52.124Z,-1.12
2018-02-21T07:50:17.597Z,-1.05
2018-02-21T07:51:16.090Z,-0.99
2018-02-21T07:51:41.576Z,-1.12
2018-02-21T07:52:07.075Z,-1.01
2018-02-21T07:52:32.597Z,-1.02
2018-02-21T07:52:58.059Z,-1.07
2018-02-21T07:53:23.548Z,-0.96
2018-02-21T07:53:49.040Z,-1.02
2018-02-21T07:54:14.552Z,-0.93
2018-02-21T07:54:40.100Z,-1.02
2018-02-21T07:55:05.523Z,-0.99
2018-02-21T07:55:30.965Z,-1.02
2018-02-21T07:55:56.496Z,-0.94
2018-02-21T07:56:22.001Z,-1.04
2018-02-21T07:56:47.501Z,-1.02
2018-02-21T07:57:12.933Z,-0.97
2018-02-21T07:57:38.404Z,-0.97
2018-02-21T07:58:03.882Z,-0.91
2018-02-21T07:58:29.340Z,-0.9
2018-02-21T07:58:54.859Z,-0.91
2018-02-21T07:59:20.330Z,-0.83
2018-02-21T07:59:45.840Z,-0.93
2018-02-21T08:00:11.324Z,-0.94
2018-02-21T08:00:36.786Z,-0.86
2018-02-21T08:01:02.257Z,-0.89
2018-02-21T08:02:05.855Z,-0.86
2018-02-21T08:02:31.361Z,-0.94
2018-02-21T08:02:56.843Z,-0.93
2018-02-21T08:03:22.324Z,-0.9
2018-02-21T08:03:47.904Z,-0.94
2018-02-21T08:04:13.305Z,-0.86
2018-02-21T08:04:38.768Z,-0.94
2018-02-21T08:05:04.274Z,-0.9
2018-02-21T08:05:29.754Z,-0.78
2018-02-21T08:05:55.244Z,-0.75
2018-02-21T08:06:20.702Z,-0.77
2018-02-21T08:06:46.173Z,-0.85
2018-02-21T08:07:39.625Z,-0.82
2018-02-21T08:08:05.111Z,-0.72
2018-02-21T08:08:30.594Z,-0.77
2018-02-21T08:08:56.097Z,-0.8
2018-02-21T08:09:21.535Z,-0.77
2018-02-21T08:09:47.062Z,-0.75
2018-02-21T08:10:12.551Z,-0.75
2018-02-21T08:10:38.044Z,-0.72
2018-02-21T08:11:03.505Z,-0.8
2018-02-21T08:11:29.013Z,-0.68
2018-02-21T08:11:54.499Z,-0.61
2018-02-21T08:12:19.969Z,-0.68
2018-02-21T08:12:45.457Z,-0.67
2018-02-21T08:13:10.919Z,-0.65
2018-02-21T08:13:36.401Z,-0.62
2018-02-21T08:14:01.885Z,-0.64
2018-02-21T08:14:27.432Z,-0.64
2018-02-21T08:14:52.986Z,-0.65
2018-02-21T08:15:18.480Z,-0.71
2018-02-21T08:15:43.946Z,-0.61
2018-02-21T08:16:09.432Z,-0.67
2018-02-21T08:16:34.932Z,-0.57
2018-02-21T08:17:00.398Z,-0.54
2018-02-21T08:17:25.873Z,-0.57
2018-02-21T08:17:51.364Z,-0.54
2018-02-21T08:18:16.841Z,-0.54
2018-02-21T08:18:42.312Z,-0.56
2018-02-21T08:19:07.899Z,-0.52
2018-02-21T08:19:33.360Z,-0.5
2018-02-21T08:19:58.854Z,-0.47
2018-02-21T08:20:24.410Z,-0.41
2018-02-21T08:20:49.879Z,-0.43
2018-02-21T08:21:15.387Z,-0.39
2018-02-21T08:21:40.896Z,-0.36
2018-02-21T08:22:06.365Z,-0.31
2018-02-21T08:22:31.846Z,-0.21
2018-02-21T08:22:57.347Z,-0.17
2018-02-21T08:23:22.840Z,-0.15
2018-02-21T08:23:48.330Z,-0.15
2018-02-21T08:24:13.838Z,-0.1
2018-02-21T08:24:39.312Z,-0.11
2018-02-21T08:25:04.798Z,0.03
2018-02-21T08:25:30.247Z,0.04
2018-02-21T08:25:55.758Z,0
2018-02-21T08:26:21.249Z,0.04
2018-02-21T08:26:46.726Z,0.1
2018-02-21T08:27:12.249Z,0.15
2018-02-21T08:27:37.726Z,0.16
2018-02-21T08:28:03.208Z,0.07
2018-02-21T08:28:28.720Z,0.04
2018-02-21T08:28:54.217Z,0.16
2018-02-21T08:29:19.693Z,0.05
2018-02-21T08:29:45.214Z,0.12
2018-02-21T08:30:10.680Z,0.05
2018-02-21T08:30:36.154Z,0.15
2018-02-21T08:31:01.629Z,0.19
2018-02-21T08:32:10.351Z,0.16
2018-02-21T08:32:35.837Z,0.22
2018-02-21T08:33:01.319Z,0.12
2018-02-21T08:33:26.786Z,0.21
2018-02-21T08:33:52.289Z,0.23
2018-02-21T08:34:17.784Z,0.36
2018-02-21T08:34:43.265Z,0.25
2018-02-21T08:35:08.738Z,0.34
2018-02-21T08:35:34.197Z,0.31
2018-02-21T08:35:59.713Z,0.29
2018-02-21T08:36:25.178Z,0.32
2018-02-21T08:36:50.642Z,0.39
2018-02-21T08:37:16.158Z,0.4
2018-02-21T08:37:41.671Z,0.44
2018-02-21T08:38:07.143Z,0.46
2018-02-21T08:38:55.456Z,0.47
2018-02-21T08:39:20.940Z,0.46
2018-02-21T08:39:46.461Z,0.5
2018-02-21T08:40:11.954Z,0.49
2018-02-21T08:40:37.483Z,0.56
2018-02-21T08:41:02.947Z,0.52
2018-02-21T08:41:28.438Z,0.52
2018-02-21T08:41:53.929Z,0.55
2018-02-21T08:42:19.428Z,0.66
2018-02-21T08:42:44.913Z,0.63
2018-02-21T08:43:10.360Z,0.65
2018-02-21T08:43:35.824Z,0.69
2018-02-21T08:44:01.317Z,0.7
2018-02-21T08:44:26.801Z,0.74
2018-02-21T08:44:52.271Z,0.74
2018-02-21T08:45:40.568Z,0.73
2018-02-21T08:46:06.072Z,0.81
2018-02-21T08:46:31.564Z,0.88
2018-02-21T08:46:57.019Z,0.8
2018-02-21T08:47:22.474Z,0.83
2018-02-21T08:47:47.932Z,0.81
2018-02-21T08:48:13.493Z,0.84
2018-02-21T08:48:38.990Z,0.81
2018-02-21T08:49:04.449Z,0.84
2018-02-21T08:49:29.956Z,0.83
2018-02-21T08:49:55.477Z,0.83
2018-02-21T08:50:20.943Z,0.8
2018-02-21T08:50:46.476Z,0.78
2018-02-21T08:51:12.018Z,0.76
2018-02-21T08:51:37.474Z,0.83
2018-02-21T08:52:02.977Z,0.86
2018-02-21T08:52:28.421Z,0.87
2018-02-21T08:52:53.933Z,0.94
2018-02-21T08:53:19.401Z,0.98
2018-02-21T08:53:44.906Z,0.84
2018-02-21T08:54:38.359Z,0.88
2018-02-21T08:55:03.841Z,0.84
2018-02-21T08:55:29.327Z,0.87
2018-02-21T08:55:54.816Z,0.98
2018-02-21T08:56:20.299Z,0.98
2018-02-21T08:56:45.779Z,0.99
2018-02-21T08:57:11.298Z,0.96
2018-02-21T08:57:36.821Z,0.96
2018-02-21T08:58:02.337Z,0.99
2018-02-21T08:58:27.817Z,0.96
2018-02-21T08:58:53.307Z,0.92
2018-02-21T08:59:18.836Z,1.02
2018-02-21T08:59:44.282Z,0.96
2018-02-21T09:00:09.777Z,1.02
2018-02-21T09:00:35.240Z,0.94
2018-02-21T09:01:00.727Z,0.98
2018-02-21T09:01:26.243Z,0.96
2018-02-21T09:01:51.698Z,0.98
2018-02-21T09:02:17.155Z,1.04
2018-02-21T09:02:42.634Z,1.01
2018-02-21T09:03:08.089Z,1.05
2018-02-21T09:03:33.601Z,1.06
2018-02-21T09:03:59.081Z,1.04
2018-02-21T09:04:24.567Z,1.06
2018-02-21T09:04:50.061Z,1.08
2018-02-21T09:05:15.564Z,1.08
2018-02-21T09:05:41.021Z,1.06
2018-02-21T09:06:06.503Z,1.13
2018-02-21T09:06:32.006Z,1.16
2018-02-21T09:06:57.467Z,1.19
2018-02-21T09:07:22.968Z,1.13
2018-02-21T09:07:48.481Z,1.17
2018-02-21T09:08:13.953Z,1.19
2018-02-21T09:08:39.418Z,1.13
2018-02-21T09:09:04.921Z,1.19
2018-02-21T09:09:30.391Z,1.2
2018-02-21T09:09:55.921Z,1.14
2018-02-21T09:10:21.412Z,1.22
2018-02-21T09:10:46.940Z,1.23
2018-02-21T09:11:12.484Z,1.26
2018-02-21T09:11:37.968Z,1.2
2018-02-21T09:12:03.468Z,1.26
2018-02-21T09:12:28.928Z,1.3
2018-02-21T09:12:54.401Z,1.3
2018-02-21T09:13:19.948Z,1.32
2018-02-21T09:13:45.416Z,1.23
2018-02-21T09:14:10.925Z,1.31
2018-02-21T09:15:14.509Z,1.31
2018-02-21T09:15:39.999Z,1.28
2018-02-21T09:16:05.513Z,1.31
2018-02-21T09:16:31.002Z,1.31
2018-02-21T09:16:56.457Z,1.35
2018-02-21T09:17:21.987Z,1.4
2018-02-21T09:17:47.453Z,1.41
2018-02-21T09:18:12.950Z,1.35
2018-02-21T09:18:38.431Z,1.44
2018-02-21T09:19:03.952Z,1.4
2018-02-21T09:19:29.420Z,1.44
2018-02-21T09:19:54.941Z,1.48
2018-02-21T09:20:20.431Z,1.41
2018-02-21T09:20:45.872Z,1.42
2018-02-21T09:21:11.363Z,1.41
2018-02-21T09:21:36.845Z,1.45
2018-02-21T09:22:02.320Z,1.5
2018-02-21T09:22:27.809Z,1.5
2018-02-21T09:22:53.391Z,1.41
2018-02-21T09:23:18.891Z,1.45
2018-02-21T09:23:44.307Z,1.41
2018-02-21T09:24:09.774Z,1.45
2018-02-21T09:24:35.338Z,1.44
2018-02-21T09:25:00.821Z,1.42
2018-02-21T09:25:26.321Z,1.52
2018-02-21T09:25:51.789Z,1.44
2018-02-21T09:26:17.260Z,1.48
2018-02-21T09:26:42.812Z,1.48
2018-02-21T09:27:08.317Z,1.45
2018-02-21T09:27:33.823Z,1.48
2018-02-21T09:27:59.289Z,1.56
2018-02-21T09:28:24.801Z,1.58
2018-02-21T09:28:50.333Z,1.67
2018-02-21T09:29:15.803Z,1.66
2018-02-21T09:29:41.333Z,1.55
2018-02-21T09:30:44.888Z,1.62
2018-02-21T09:31:10.368Z,1.62
2018-02-21T09:31:35.869Z,1.62
2018-02-21T09:32:01.327Z,1.63
2018-02-21T09:32:26.809Z,1.6
2018-02-21T09:32:52.353Z,1.6
2018-02-21T09:33:17.931Z,1.63
2018-02-21T09:33:43.406Z,1.74
2018-02-21T09:34:09.005Z,1.73
2018-02-21T09:34:34.494Z,1.76
2018-02-21T09:34:59.962Z,1.71
2018-02-21T09:35:25.455Z,1.78
2018-02-21T09:35:50.900Z,1.8
2018-02-21T09:36:16.384Z,1.84
2018-02-21T09:37:14.918Z,1.7
2018-02-21T09:37:40.435Z,1.78
2018-02-21T09:38:05.909Z,1.78
2018-02-21T09:38:31.413Z,1.84
2018-02-21T09:38:56.910Z,1.84
2018-02-21T09:39:22.429Z,1.78
2018-02-21T09:39:47.917Z,1.85
2018-02-21T09:40:13.474Z,1.8
2018-02-21T09:40:38.910Z,1.77
2018-02-21T09:41:04.377Z,1.77
2018-02-21T09:41:29.821Z,1.88
2018-02-21T09:41:55.290Z,1.77
2018-02-21T09:42:20.798Z,1.81
2018-02-21T09:42:46.300Z,1.92
2018-02-21T09:43:11.847Z,1.91
2018-02-21T09:43:37.257Z,1.92
2018-02-21T09:44:02.747Z,1.84
2018-02-21T09:44:28.220Z,1.85
2018-02-21T09:44:53.715Z,1.85
2018-02-21T09:45:19.184Z,1.81
2018-02-21T09:45:44.671Z,1.8
2018-02-21T09:46:10.139Z,1.88
2018-02-21T09:46:35.638Z,1.87
2018-02-21T09:47:01.108Z,1.85
2018-02-21T09:47:26.601Z,1.84
2018-02-21T09:47:52.074Z,1.88
2018-02-21T09:48:17.596Z,1.81
2018-02-21T09:48:43.046Z,1.94
2018-02-21T09:49:08.545Z,1.85
2018-02-21T09:49:34.117Z,1.94
2018-02-21T09:49:59.651Z,1.87
2018-02-21T09:50:25.151Z,1.88
2018-02-21T09:50:50.649Z,1.94
2018-02-21T09:51:16.109Z,1.87
2018-02-21T09:51:41.618Z,1.94
2018-02-21T09:52:07.115Z,1.88
2018-02-21T09:52:32.574Z,1.87
2018-02-21T09:52:58.057Z,1.92
2018-02-21T09:53:23.517Z,1.91
2018-02-21T09:53:48.980Z,1.99
2018-02-21T09:54:14.440Z,1.94
2018-02-21T09:54:39.935Z,2.02
2018-02-21T09:55:05.465Z,1.99
2018-02-21T09:55:30.962Z,2.07
2018-02-21T09:55:56.484Z,2.02
2018-02-21T09:56:21.998Z,2.04
2018-02-21T09:57:25.618Z,2
2018-02-21T09:57:51.109Z,2.13
2018-02-21T09:58:16.656Z,2.06
2018-02-21T09:58:42.126Z,2.13
2018-02-21T09:59:07.611Z,2.06
2018-02-21T09:59:33.058Z,2.11
2018-02-21T09:59:58.584Z,2.14
2018-02-21T10:00:24.094Z,2.15
2018-02-21T10:00:49.586Z,2.2
2018-02-21T10:01:15.123Z,2.15
2018-02-21T10:01:40.587Z,2.22
2018-02-21T10:02:06.073Z,2.25
2018-02-21T10:02:31.537Z,2.26
2018-02-21T10:02:57.078Z,2.29
2018-02-21T10:03:22.570Z,2.26
2018-02-21T10:03:48.059Z,2.28
2018-02-21T10:04:13.542Z,2.22
2018-02-21T10:04:39.074Z,2.22
2018-02-21T10:05:04.562Z,2.26
2018-02-21T10:05:30.072Z,2.25
2018-02-21T10:05:55.520Z,2.29
2018-02-21T10:06:21.019Z,2.25
2018-02-21T10:06:46.497Z,2.29
2018-02-21T10:07:11.979Z,2.36
2018-02-21T10:07:37.447Z,2.32
2018-02-21T10:08:02.949Z,2.38
2018-02-21T10:08:28.463Z,2.33
2018-02-21T10:08:53.942Z,2.25
2018-02-21T10:09:19.395Z,2.35
2018-02-21T10:09:44.908Z,2.29
2018-02-21T10:10:10.420Z,2.28
2018-02-21T10:10:35.951Z,2.36
2018-02-21T10:11:01.429Z,2.39
2018-02-21T10:11:26.946Z,2.38
2018-02-21T10:11:52.434Z,2.39
2018-02-21T10:12:17.929Z,2.29
2018-02-21T10:12:43.455Z,2.39
2018-02-21T10:13:47.041Z,2.39
2018-02-21T10:14:12.515Z,2.42
2018-02-21T10:14:38.010Z,2.31
2018-02-21T10:15:03.482Z,2.33
2018-02-21T10:15:28.960Z,2.44
2018-02-21T10:15:54.497Z,2.46
2018-02-21T10:16:47.962Z,2.32
2018-02-21T10:17:13.421Z,2.47
2018-02-21T10:17:38.929Z,2.42
2018-02-21T10:18:04.422Z,2.33
2018-02-21T10:18:29.923Z,2.44
2018-02-21T10:18:55.419Z,2.46
2018-02-21T10:19:20.939Z,2.43
2018-02-21T10:19:46.407Z,2.38
2018-02-21T10:20:11.877Z,2.46
2018-02-21T10:20:37.399Z,2.51
2018-02-21T10:21:35.924Z,2.54
2018-02-21T10:22:01.418Z,2.56
2018-02-21T10:22:26.947Z,2.61
2018-02-21T10:22:52.412Z,2.57
2018-02-21T10:23:17.952Z,2.64
2018-02-21T10:23:43.449Z,2.62
2018-02-21T10:24:08.915Z,2.6
2018-02-21T10:24:34.417Z,2.54
2018-02-21T10:24:59.931Z,2.61
2018-02-21T10:25:25.405Z,2.61
2018-02-21T10:25:50.884Z,2.62
2018-02-21T10:26:16.342Z,2.6
2018-02-21T10:26:41.847Z,2.65
2018-02-21T10:27:07.323Z,2.67
2018-02-21T10:27:32.808Z,2.6
2018-02-21T10:27:58.316Z,2.6
2018-02-21T10:28:23.851Z,2.57
2018-02-21T10:28:49.345Z,2.57
2018-02-21T10:29:14.819Z,2.68
2018-02-21T10:29:40.321Z,2.64
2018-02-21T10:30:33.721Z,2.61
2018-02-21T10:30:59.204Z,2.57
2018-02-21T10:31:24.693Z,2.68
2018-02-21T10:31:50.182Z,2.64
2018-02-21T10:32:15.683Z,2.61
2018-02-21T10:32:41.201Z,2.65
2018-02-21T10:33:06.659Z,2.62
2018-02-21T10:33:32.162Z,2.65
2018-02-21T10:33:57.629Z,2.62
2018-02-21T10:34:23.074Z,2.62
2018-02-21T10:34:48.594Z,2.64
2018-02-21T10:35:14.102Z,2.6
2018-02-21T10:35:39.575Z,2.65
2018-02-21T10:36:05.068Z,2.61
2018-02-21T10:36:30.547Z,2.67
2018-02-21T10:36:56.038Z,2.53
2018-02-21T10:37:21.510Z,2.54
2018-02-21T10:37:47.084Z,2.62
2018-02-21T10:38:12.576Z,2.68
2018-02-21T10:38:38.028Z,2.68
2018-02-21T10:39:03.508Z,2.77
2018-02-21T10:39:29.059Z,2.68
2018-02-21T10:39:54.517Z,2.67
2018-02-21T10:40:20.019Z,2.71
2018-02-21T10:40:45.502Z,2.75
2018-02-21T10:41:11.020Z,2.8
2018-02-21T10:41:36.505Z,2.68
2018-02-21T10:42:02.001Z,2.79
2018-02-21T10:42:27.472Z,2.77
2018-02-21T10:42:52.934Z,2.74
2018-02-21T10:43:18.444Z,2.69
2018-02-21T10:43:43.923Z,2.77
2018-02-21T10:44:09.352Z,2.77
2018-02-21T10:44:34.848Z,2.75
2018-02-21T10:45:00.330Z,2.85
2018-02-21T10:45:25.815Z,2.79
2018-02-21T10:45:51.291Z,2.82
2018-02-21T10:46:16.779Z,2.72
2018-02-21T10:46:42.270Z,2.85
2018-02-21T10:47:07.743Z,2.83
2018-02-21T10:47:33.272Z,2.8
2018-02-21T10:47:58.741Z,2.83
2018-02-21T10:48:24.196Z,2.85